createdAt,value
2022-11-28T00:00:17.308Z,7.40
2022-11-28T00:01:41.564Z,7.72
2022-11-28T00:02:45.292Z,6.93
2022-11-28T00:03:50.682Z,8.20
2022-11-28T00:04:59.008Z,8.63
2022-11-28T00:06:08.033Z,8.82
2022-11-28T00:07:13.908Z,7.28
2022-11-28T00:08:26.242Z,6.80
2022-11-28T00:09:33.874Z,8.02
2022-11-28T00:10:46.154Z,7.78
2022-11-28T00:11:52.561Z,9.05
2022-11-28T00:12:59.667Z,9.07
2022-11-28T00:14:04.972Z,8.48
2022-11-28T00:15:12.610Z,6.75
2022-11-28T00:16:22.965Z,7.30
2022-11-28T00:17:28.794Z,7.57
2022-11-28T00:18:36.443Z,7.00
2022-11-28T00:19:44.169Z,8.60
2022-11-28T00:20:50.850Z,7.75
2022-11-28T00:22:02.458Z,7.70
2022-11-28T00:23:07.839Z,9.93
2022-11-28T00:24:14.482Z,8.52
2022-11-28T00:25:25.300Z,7.63
2022-11-28T00:26:41.658Z,6.05
2022-11-28T00:27:45.628Z,6.50
2022-11-28T00:28:51.417Z,7.45
2022-11-28T00:29:58.776Z,6.57
2022-11-28T00:31:08.255Z,6.47
2022-11-28T00:32:13.051Z,7.45
2022-11-28T00:33:19.447Z,6.95
2022-11-28T00:34:24.775Z,6.85
2022-11-28T00:35:35.842Z,8.00
2022-11-28T00:36:45.952Z,8.07
2022-11-28T00:37:51.545Z,7.57
2022-11-28T00:39:04.797Z,8.10
2022-11-28T00:40:13.896Z,7.25
2022-11-28T00:41:32.336Z,6.32
2022-11-28T00:42:47.192Z,6.70
2022-11-28T00:43:54.620Z,6.85
2022-11-28T00:45:00.693Z,8.10
2022-11-28T00:46:05.276Z,7.15
2022-11-28T00:47:09.805Z,6.93
2022-11-28T00:48:14.123Z,6.25
2022-11-28T00:49:21.728Z,7.53
2022-11-28T00:50:25.718Z,7.88
2022-11-28T00:51:34.204Z,6.78
2022-11-28T00:52:43.476Z,7.30
2022-11-28T00:53:59.789Z,7.18
2022-11-28T00:55:03.584Z,8.90
2022-11-28T00:56:21.407Z,6.05
2022-11-28T00:57:25.553Z,8.13
2022-11-28T00:58:35.329Z,6.80
2022-11-28T00:59:40.044Z,6.90
2022-11-28T01:00:49.007Z,6.57
2022-11-28T01:01:53.906Z,7.45
2022-11-28T01:03:00.176Z,6.22
2022-11-28T01:04:09.826Z,6.82
2022-11-28T01:05:13.451Z,6.65
2022-11-28T01:06:35.677Z,8.07
2022-11-28T01:07:42.961Z,7.40
2022-11-28T01:08:48.180Z,7.70
2022-11-28T01:09:52.350Z,7.10
2022-11-28T01:10:56.731Z,7.88
2022-11-28T01:12:03.523Z,6.43
2022-11-28T01:13:11.851Z,6.95
2022-11-28T01:14:26.830Z,7.88
2022-11-28T01:15:30.543Z,6.45
2022-11-28T01:16:36.038Z,7.85
2022-11-28T01:17:42.172Z,7.70
2022-11-28T01:18:50.389Z,6.20
2022-11-28T01:19:58.412Z,6.57
2022-11-28T01:21:07.839Z,7.07
2022-11-28T01:22:23.617Z,6.95
2022-11-28T01:23:28.361Z,7.57
2022-11-28T01:24:36.054Z,7.57
2022-11-28T01:25:40.472Z,6.05
2022-11-28T01:26:45.320Z,8.73
2022-11-28T01:27:49.566Z,6.50
2022-11-28T01:28:53.428Z,7.57
2022-11-28T01:29:56.965Z,7.88
2022-11-28T01:31:07.907Z,6.68
2022-11-28T01:32:11.634Z,7.65
2022-11-28T01:33:15.324Z,6.15
2022-11-28T01:34:21.578Z,6.60
2022-11-28T01:35:25.231Z,7.03
2022-11-28T01:36:29.253Z,7.68
2022-11-28T01:37:32.810Z,6.75
2022-11-28T01:38:36.437Z,6.40
2022-11-28T01:39:40.744Z,6.15
2022-11-28T01:40:47.220Z,5.75
2022-11-28T01:41:52.440Z,7.07
2022-11-28T01:42:59.846Z,5.93
2022-11-28T01:44:32.485Z,7.32
2022-11-28T01:45:42.138Z,7.97
2022-11-28T01:46:45.808Z,7.65
2022-11-28T01:47:56.246Z,6.82
2022-11-28T01:49:22.267Z,7.78
2022-11-28T01:50:30.489Z,6.55
2022-11-28T01:51:44.985Z,7.28
2022-11-28T01:53:02.344Z,7.43
2022-11-28T01:54:08.918Z,7.40
2022-11-28T01:55:21.341Z,6.88
2022-11-28T01:56:43.786Z,6.53
2022-11-28T01:57:54.357Z,7.88
2022-11-28T01:59:08.854Z,6.10
2022-11-28T02:00:18.153Z,6.90
2022-11-28T02:01:27.981Z,6.85
2022-11-28T02:02:51.903Z,6.30
2022-11-28T02:03:59.446Z,8.65
2022-11-28T02:05:05.157Z,6.57
2022-11-28T02:06:12.967Z,7.95
2022-11-28T02:07:22.349Z,7.20
2022-11-28T02:08:35.330Z,8.07
2022-11-28T02:09:39.936Z,7.40
2022-11-28T02:11:15.331Z,7.85
2022-11-28T02:13:08.549Z,6.47
2022-11-28T02:14:35.774Z,7.40
2022-11-28T02:16:29.373Z,7.90
2022-11-28T02:17:54.992Z,7.22
2022-11-28T02:19:34.898Z,6.78
2022-11-28T02:21:19.242Z,7.35
2022-11-28T02:23:13.203Z,8.73
2022-11-28T02:24:30.081Z,6.07
2022-11-28T02:26:08.521Z,8.40
2022-11-28T02:28:08.998Z,6.68
2022-11-28T02:29:53.169Z,7.88
2022-11-28T02:31:09.732Z,7.60
2022-11-28T02:32:37.120Z,7.35
2022-11-28T02:34:28.538Z,8.38
2022-11-28T02:35:47.475Z,7.45
2022-11-28T02:37:07.041Z,7.60
2022-11-28T02:39:10.356Z,7.43
2022-11-28T02:40:55.315Z,7.93
2022-11-28T02:42:28.922Z,6.72
2022-11-28T02:44:04.229Z,6.18
2022-11-28T02:45:20.117Z,9.40
2022-11-28T02:46:47.163Z,6.05
2022-11-28T02:48:06.208Z,7.35
2022-11-28T02:49:24.413Z,7.70
2022-11-28T02:50:54.565Z,5.90
2022-11-28T02:52:15.724Z,7.28
2022-11-28T02:53:28.757Z,8.20
2022-11-28T02:54:35.754Z,7.07
2022-11-28T02:55:45.791Z,8.10
2022-11-28T02:56:56.741Z,8.65
2022-11-28T02:58:22.364Z,7.15
2022-11-28T02:59:56.270Z,8.27
2022-11-28T03:01:02.384Z,6.97
2022-11-28T03:02:23.129Z,6.82
2022-11-28T03:03:45.381Z,7.57
2022-11-28T03:05:26.006Z,6.53
2022-11-28T03:07:13.559Z,7.22
2022-11-28T03:09:00.021Z,7.10
2022-11-28T03:10:23.968Z,6.15
2022-11-28T03:12:13.842Z,7.70
2022-11-28T03:13:53.680Z,7.55
2022-11-28T03:15:07.615Z,7.30
2022-11-28T03:16:24.751Z,7.35
2022-11-28T03:17:47.201Z,7.57
2022-11-28T03:19:17.131Z,7.07
2022-11-28T03:20:39.527Z,8.60
2022-11-28T03:24:12.044Z,7.13
2022-11-28T03:26:02.291Z,6.65
2022-11-28T03:27:35.213Z,5.72
2022-11-28T03:29:07.960Z,6.03
2022-11-28T03:30:30.040Z,5.95
2022-11-28T03:31:42.400Z,6.43
2022-11-28T03:32:56.538Z,7.10
2022-11-28T03:34:21.152Z,5.75
2022-11-28T03:35:37.612Z,6.60
2022-11-28T03:36:50.228Z,7.03
2022-11-28T03:38:30.229Z,6.63
2022-11-28T03:39:42.803Z,5.82
2022-11-28T03:41:08.143Z,6.15
2022-11-28T03:42:30.032Z,7.13
2022-11-28T03:43:49.268Z,7.35
2022-11-28T03:45:21.425Z,6.35
2022-11-28T03:46:36.027Z,6.13
2022-11-28T03:47:49.499Z,6.55
2022-11-28T03:49:00.767Z,5.90
2022-11-28T03:50:20.355Z,6.55
2022-11-28T03:51:44.222Z,7.50
2022-11-28T03:53:05.683Z,6.07
2022-11-28T03:54:22.175Z,5.55
2022-11-28T03:55:52.953Z,6.82
2022-11-28T03:57:08.558Z,8.15
2022-11-28T03:58:40.469Z,7.72
2022-11-28T03:59:56.074Z,6.57
2022-11-28T04:01:18.817Z,6.65
2022-11-28T04:02:56.827Z,6.22
2022-11-28T04:04:45.928Z,8.02
2022-11-28T04:06:07.585Z,6.85
2022-11-28T04:07:43.955Z,6.63
2022-11-28T04:09:14.053Z,7.28
2022-11-28T04:10:51.487Z,7.97
2022-11-28T04:12:04.873Z,7.38
2022-11-28T04:13:37.514Z,7.47
2022-11-28T04:15:00.253Z,8.40
2022-11-28T04:16:42.747Z,5.65
2022-11-28T04:18:20.357Z,8.32
2022-11-28T04:19:43.202Z,7.85
2022-11-28T04:21:20.071Z,7.82
2022-11-28T04:22:39.520Z,7.28
2022-11-28T04:23:51.748Z,7.13
2022-11-28T04:25:06.548Z,6.70
2022-11-28T04:26:27.297Z,8.07
2022-11-28T04:27:43.123Z,8.70
2022-11-28T04:28:54.515Z,5.97
2022-11-28T04:30:11.621Z,8.30
2022-11-28T04:31:25.825Z,6.95
2022-11-28T04:32:42.140Z,7.10
2022-11-28T04:33:58.218Z,8.25
2022-11-28T04:35:15.142Z,7.38
2022-11-28T04:36:25.148Z,6.32
2022-11-28T04:37:36.707Z,7.78
2022-11-28T04:38:56.896Z,6.65
2022-11-28T04:40:12.591Z,5.88
2022-11-28T04:41:29.209Z,6.65
2022-11-28T04:42:48.785Z,7.00
2022-11-28T04:44:41.340Z,6.85
2022-11-28T04:45:56.258Z,5.65
2022-11-28T04:47:02.651Z,8.35
2022-11-28T04:48:08.486Z,6.85
2022-11-28T04:49:14.295Z,5.60
2022-11-28T04:50:28.855Z,6.40
2022-11-28T04:52:03.824Z,6.68
2022-11-28T04:53:57.711Z,5.35
2022-11-28T04:55:17.318Z,6.45
2022-11-28T04:56:41.936Z,5.63
2022-11-28T04:58:16.923Z,6.40
2022-11-28T04:59:33.812Z,6.45
2022-11-28T05:00:41.995Z,6.40
2022-11-28T05:01:51.173Z,5.97
2022-11-28T05:02:58.012Z,5.68
2022-11-28T05:04:04.328Z,6.63
2022-11-28T05:05:32.897Z,6.95
2022-11-28T05:06:38.815Z,5.97
2022-11-28T05:07:48.960Z,6.95
2022-11-28T05:09:07.258Z,7.00
2022-11-28T05:10:18.111Z,5.25
2022-11-28T05:11:24.008Z,6.50
2022-11-28T05:12:31.558Z,5.68
2022-11-28T05:13:35.707Z,5.65
2022-11-28T05:14:51.645Z,6.35
2022-11-28T05:16:05.982Z,6.43
2022-11-28T05:17:14.839Z,5.28
2022-11-28T05:18:23.975Z,6.40
2022-11-28T05:19:30.056Z,5.18
2022-11-28T05:20:37.754Z,5.18
2022-11-28T05:21:45.237Z,5.50
2022-11-28T05:22:51.830Z,6.38
2022-11-28T05:24:02.869Z,5.18
2022-11-28T05:25:12.372Z,5.15
2022-11-28T05:26:22.204Z,6.63
2022-11-28T05:27:31.609Z,5.60
2022-11-28T05:28:38.066Z,6.30
2022-11-28T05:29:52.315Z,6.85
2022-11-28T05:31:02.412Z,6.43
2022-11-28T05:32:09.816Z,5.72
2022-11-28T05:33:15.351Z,6.82
2022-11-28T05:34:25.670Z,6.13
2022-11-28T05:35:32.325Z,5.70
2022-11-28T05:36:36.126Z,7.43
2022-11-28T05:37:47.019Z,6.97
2022-11-28T05:38:55.711Z,6.68
2022-11-28T05:40:04.204Z,5.75
2022-11-28T05:41:23.027Z,7.07
2022-11-28T05:42:52.687Z,6.25
2022-11-28T05:44:01.395Z,5.82
2022-11-28T05:45:15.905Z,6.65
2022-11-28T05:46:29.004Z,5.82
2022-11-28T05:47:41.418Z,6.20
2022-11-28T05:48:51.589Z,5.47
2022-11-28T05:50:00.889Z,4.82
2022-11-28T05:51:08.530Z,6.38
2022-11-28T05:52:17.124Z,5.40
2022-11-28T05:53:28.968Z,6.32
2022-11-28T05:54:36.555Z,5.43
2022-11-28T05:55:44.893Z,7.22
2022-11-28T05:56:52.397Z,5.85
2022-11-28T05:58:06.640Z,6.13
2022-11-28T05:59:16.660Z,5.63
2022-11-28T06:00:24.488Z,5.95
2022-11-28T06:01:33.321Z,6.25
2022-11-28T06:02:37.149Z,6.93
2022-11-28T06:03:41.792Z,5.50
2022-11-28T06:04:45.306Z,7.20
2022-11-28T06:05:49.027Z,5.75
2022-11-28T06:06:53.162Z,5.53
2022-11-28T06:07:57.297Z,5.75
2022-11-28T06:09:01.990Z,5.30
2022-11-28T06:10:07.347Z,5.90
2022-11-28T06:11:12.887Z,5.50
2022-11-28T06:12:17.996Z,7.28
2022-11-28T06:13:35.808Z,6.95
2022-11-28T06:14:48.007Z,4.95
2022-11-28T06:16:00.532Z,7.43
2022-11-28T06:17:04.928Z,5.88
2022-11-28T06:18:25.991Z,6.85
2022-11-28T06:19:38.828Z,7.00
2022-11-28T06:20:46.338Z,7.68
2022-11-28T06:21:51.018Z,7.00
2022-11-28T06:22:57.367Z,5.57
2022-11-28T06:24:03.443Z,6.45
2022-11-28T06:25:11.092Z,5.93
2022-11-28T06:26:26.377Z,6.03
2022-11-28T06:27:46.591Z,6.10
2022-11-28T06:28:51.210Z,5.60
2022-11-28T06:30:00.626Z,6.22
2022-11-28T06:31:22.739Z,4.35
2022-11-28T06:32:31.674Z,5.65
2022-11-28T06:33:40.050Z,6.40
2022-11-28T06:34:50.327Z,4.95
2022-11-28T06:36:05.649Z,6.10
2022-11-28T06:37:13.919Z,5.40
2022-11-28T06:38:22.677Z,6.43
2022-11-28T06:39:30.543Z,5.80
2022-11-28T06:41:08.291Z,5.70
2022-11-28T06:42:17.727Z,5.78
2022-11-28T06:43:46.869Z,4.90
2022-11-28T06:45:00.393Z,5.60
2022-11-28T06:46:05.887Z,6.07
2022-11-28T06:47:15.504Z,6.28
2022-11-28T06:48:33.382Z,4.70
2022-11-28T06:49:37.395Z,5.97
2022-11-28T06:50:58.933Z,6.40
2022-11-28T06:52:09.508Z,6.70
2022-11-28T06:53:28.658Z,5.80
2022-11-28T06:54:37.835Z,6.85
2022-11-28T06:55:49.717Z,5.68
2022-11-28T06:56:56.522Z,5.25
2022-11-28T06:58:19.228Z,7.25
2022-11-28T06:59:33.854Z,5.68
2022-11-28T07:00:43.993Z,5.38
2022-11-28T07:01:50.494Z,5.95
2022-11-28T07:03:00.128Z,5.82
2022-11-28T07:05:41.708Z,6.65
2022-11-28T07:06:48.194Z,6.38
2022-11-28T07:07:54.531Z,5.28
2022-11-28T07:09:04.455Z,5.55
2022-11-28T07:10:28.860Z,6.28
2022-11-28T07:11:44.485Z,5.82
2022-11-28T07:13:05.133Z,5.28
2022-11-28T07:14:18.196Z,5.70
2022-11-28T07:15:29.075Z,5.30
2022-11-28T07:16:38.596Z,4.97
2022-11-28T07:17:49.779Z,5.80
2022-11-28T07:19:02.299Z,4.93
2022-11-28T07:20:09.951Z,5.47
2022-11-28T07:21:15.025Z,5.57
2022-11-28T07:22:24.129Z,4.57
2022-11-28T07:23:28.859Z,5.82
2022-11-28T07:24:40.579Z,6.80
2022-11-28T07:26:04.476Z,4.90
2022-11-28T07:27:09.018Z,6.38
2022-11-28T07:28:21.903Z,6.18
2022-11-28T07:29:39.244Z,5.68
2022-11-28T07:31:18.921Z,6.03
2022-11-28T07:32:29.330Z,5.57
2022-11-28T07:33:55.100Z,5.30
2022-11-28T07:35:12.702Z,4.82
2022-11-28T07:37:53.609Z,4.82
2022-11-28T07:39:24.358Z,6.15
2022-11-28T07:40:33.746Z,4.90
2022-11-28T07:41:41.967Z,5.63
2022-11-28T07:42:52.708Z,6.43
2022-11-28T07:44:07.185Z,7.55
2022-11-28T07:45:14.267Z,7.30
2022-11-28T07:46:32.298Z,5.30
2022-11-28T07:47:44.077Z,5.60
2022-11-28T07:48:57.775Z,5.30
2022-11-28T07:50:05.979Z,4.75
2022-11-28T07:52:39.692Z,5.82
2022-11-28T07:53:50.618Z,5.00
2022-11-28T07:55:05.427Z,5.15
2022-11-28T07:56:17.322Z,4.95
2022-11-28T07:57:45.760Z,4.57
2022-11-28T07:58:52.453Z,6.65
2022-11-28T08:00:07.796Z,4.22
2022-11-28T08:01:31.329Z,5.43
2022-11-28T08:02:35.238Z,5.95
2022-11-28T08:03:39.287Z,4.43
2022-11-28T08:04:48.602Z,6.85
2022-11-28T08:06:03.055Z,5.28
2022-11-28T08:07:07.221Z,5.22
2022-11-28T08:08:10.901Z,5.20
2022-11-28T08:09:15.044Z,4.90
2022-11-28T08:10:20.287Z,4.53
2022-11-28T08:11:25.435Z,4.15
2022-11-28T08:12:31.728Z,4.82
2022-11-28T08:13:39.327Z,5.50
2022-11-28T08:14:54.717Z,5.25
2022-11-28T08:16:13.384Z,4.50
2022-11-28T08:17:19.993Z,5.10
2022-11-28T08:18:25.637Z,5.35
2022-11-28T08:19:35.045Z,4.45
2022-11-28T08:20:41.924Z,3.97
2022-11-28T08:21:47.920Z,5.05
2022-11-28T08:22:56.955Z,4.97
2022-11-28T08:24:23.634Z,5.97
2022-11-28T08:25:36.034Z,4.30
2022-11-28T08:26:44.287Z,5.88
2022-11-28T08:27:50.121Z,4.13
2022-11-28T08:28:59.079Z,5.05
2022-11-28T08:30:15.084Z,4.75
2022-11-28T08:31:43.591Z,5.10
2022-11-28T08:32:56.865Z,3.95
2022-11-28T08:34:10.996Z,4.55
2022-11-28T08:35:22.587Z,3.80
2022-11-28T08:36:32.334Z,5.45
2022-11-28T08:37:39.172Z,3.70
2022-11-28T08:39:03.491Z,4.70
2022-11-28T08:40:17.518Z,4.63
2022-11-28T08:41:27.068Z,4.45
2022-11-28T08:42:36.882Z,5.20
2022-11-28T08:43:49.210Z,3.97
2022-11-28T08:45:00.336Z,4.55
2022-11-28T08:46:37.192Z,3.80
2022-11-28T08:47:44.599Z,5.22
2022-11-28T08:48:53.089Z,4.82
2022-11-28T08:50:01.337Z,5.03
2022-11-28T08:51:23.182Z,4.32
2022-11-28T08:52:37.569Z,4.93
2022-11-28T08:53:49.330Z,3.88
2022-11-28T08:54:58.236Z,4.28
2022-11-28T08:56:04.275Z,4.60
2022-11-28T08:57:09.776Z,4.03
2022-11-28T08:58:15.795Z,4.90
2022-11-28T08:59:25.021Z,3.83
2022-11-28T09:00:48.234Z,4.25
2022-11-28T09:01:57.886Z,3.58
2022-11-28T09:03:03.878Z,5.88
2022-11-28T09:04:16.439Z,5.10
2022-11-28T09:05:24.116Z,4.53
2022-11-28T09:06:28.907Z,4.85
2022-11-28T09:07:36.929Z,4.45
2022-11-28T09:08:43.908Z,5.22
2022-11-28T09:09:51.027Z,5.80
2022-11-28T09:10:58.151Z,4.43
2022-11-28T09:12:01.717Z,4.35
2022-11-28T09:13:11.937Z,5.30
2022-11-28T09:14:27.301Z,4.65
2022-11-28T09:15:38.115Z,5.30
2022-11-28T09:16:44.141Z,4.75
2022-11-28T09:17:53.704Z,4.30
2022-11-28T09:19:01.756Z,4.75
2022-11-28T09:20:07.094Z,4.57
2022-11-28T09:21:14.613Z,3.78
2022-11-28T09:23:53.326Z,4.32
2022-11-28T09:25:00.366Z,4.60
2022-11-28T09:26:21.271Z,3.90
2022-11-28T09:27:26.814Z,6.43
2022-11-28T09:28:41.831Z,4.60
2022-11-28T09:29:57.405Z,4.05
2022-11-28T09:31:07.043Z,5.30
2022-11-28T09:32:12.808Z,5.25
2022-11-28T09:33:20.528Z,5.50
2022-11-28T09:34:25.272Z,4.22
2022-11-28T09:35:41.278Z,4.10
2022-11-28T09:36:45.865Z,3.85
2022-11-28T09:37:54.158Z,6.35
2022-11-28T09:39:01.967Z,5.95
2022-11-28T09:40:22.185Z,4.50
2022-11-28T09:41:34.660Z,4.68
2022-11-28T09:42:47.062Z,4.45
2022-11-28T09:43:55.174Z,4.72
2022-11-28T09:45:24.828Z,5.00
2022-11-28T09:46:35.265Z,4.30
2022-11-28T09:47:48.798Z,4.10
2022-11-28T09:49:02.333Z,4.30
2022-11-28T09:50:28.129Z,5.05
2022-11-28T09:52:08.258Z,4.78
2022-11-28T09:53:26.440Z,4.90
2022-11-28T09:55:25.230Z,4.68
2022-11-28T09:56:29.899Z,3.08
2022-11-28T09:57:56.508Z,4.55
2022-11-28T09:59:19.866Z,4.22
2022-11-28T10:01:08.098Z,4.63
2022-11-28T10:02:41.837Z,4.68
2022-11-28T10:04:43.101Z,4.93
2022-11-28T10:06:24.316Z,4.70
2022-11-28T10:07:43.722Z,3.65
2022-11-28T10:09:25.772Z,3.55
2022-11-28T10:11:16.473Z,4.10
2022-11-28T10:13:07.061Z,3.95
2022-11-28T10:14:44.279Z,3.90
2022-11-28T10:16:09.293Z,3.30
2022-11-28T10:17:44.864Z,4.72
2022-11-28T10:19:52.844Z,5.00
2022-11-28T10:21:07.158Z,3.78
2022-11-28T10:22:50.376Z,4.15
2022-11-28T10:24:22.778Z,3.35
2022-11-28T10:25:46.535Z,3.92
2022-11-28T10:27:10.557Z,4.63
2022-11-28T10:28:35.563Z,5.22
2022-11-28T10:30:08.106Z,4.63
2022-11-28T10:31:45.518Z,4.45
2022-11-28T10:33:26.190Z,4.47
2022-11-28T10:34:54.374Z,2.78
2022-11-28T10:36:02.060Z,4.18
2022-11-28T10:37:32.378Z,4.13
2022-11-28T10:38:37.043Z,4.03
2022-11-28T10:39:49.002Z,3.53
2022-11-28T10:41:24.432Z,3.92
2022-11-28T10:42:42.290Z,4.18
2022-11-28T10:44:03.667Z,3.83
2022-11-28T10:45:25.128Z,3.83
2022-11-28T10:46:53.366Z,4.35
2022-11-28T10:49:00.747Z,4.78
2022-11-28T10:50:41.988Z,3.35
2022-11-28T10:52:02.395Z,3.88
2022-11-28T10:53:45.702Z,4.78
2022-11-28T10:55:31.895Z,3.75
2022-11-28T10:57:06.445Z,4.82
2022-11-28T10:59:02.810Z,4.28
2022-11-28T11:00:25.149Z,3.40
2022-11-28T11:01:49.803Z,3.78
2022-11-28T11:03:15.091Z,4.28
2022-11-28T11:04:33.677Z,4.93
2022-11-28T11:05:47.602Z,3.97
2022-11-28T11:07:31.932Z,4.55
2022-11-28T11:08:48.642Z,4.50
2022-11-28T11:10:24.744Z,4.40
2022-11-28T11:11:49.760Z,3.92
2022-11-28T11:12:54.364Z,3.85
2022-11-28T11:14:30.242Z,4.38
2022-11-28T11:15:58.109Z,3.92
2022-11-28T11:17:06.322Z,4.18
2022-11-28T11:18:40.550Z,4.25
2022-11-28T11:19:54.909Z,3.33
2022-11-28T11:21:30.633Z,3.50
2022-11-28T11:22:36.418Z,4.13
2022-11-28T11:23:48.725Z,4.38
2022-11-28T11:25:23.582Z,4.82
2022-11-28T11:26:45.963Z,3.90
2022-11-28T11:27:57.461Z,4.95
2022-11-28T11:29:06.325Z,3.30
2022-11-28T11:30:35.329Z,4.57
2022-11-28T11:31:50.626Z,3.63
2022-11-28T11:33:00.621Z,3.97
2022-11-28T11:34:18.733Z,3.97
2022-11-28T11:35:52.835Z,3.55
2022-11-28T11:37:28.332Z,3.90
2022-11-28T11:38:38.804Z,4.93
2022-11-28T11:39:53.707Z,3.42
2022-11-28T11:41:33.336Z,4.72
2022-11-28T11:42:58.833Z,3.35
2022-11-28T11:44:29.878Z,3.65
2022-11-28T11:45:35.807Z,3.30
2022-11-28T11:47:09.626Z,3.20
2022-11-28T11:48:16.706Z,4.05
2022-11-28T11:50:59.448Z,3.20
2022-11-28T11:52:17.252Z,3.95
2022-11-28T11:53:26.026Z,3.75
2022-11-28T11:54:33.457Z,3.70
2022-11-28T11:56:01.370Z,3.60
2022-11-28T11:57:32.714Z,3.33
2022-11-28T11:58:55.622Z,4.68
2022-11-28T12:00:37.461Z,3.88
2022-11-28T12:01:46.938Z,3.83
2022-11-28T12:03:49.185Z,3.45
2022-11-28T12:05:15.984Z,3.60
2022-11-28T12:06:41.929Z,3.90
2022-11-28T12:08:46.760Z,2.92
2022-11-28T12:10:01.704Z,3.83
2022-11-28T12:11:45.441Z,3.03
2022-11-28T12:12:50.900Z,4.00
2022-11-28T12:13:57.429Z,4.85
2022-11-28T12:15:01.115Z,4.05
2022-11-28T12:16:48.344Z,4.15
2022-11-28T12:18:12.949Z,4.70
2022-11-28T12:19:59.355Z,3.08
2022-11-28T12:21:22.314Z,3.60
2022-11-28T12:22:46.526Z,2.97
2022-11-28T12:24:21.242Z,3.42
2022-11-28T12:25:56.077Z,4.15
2022-11-28T12:27:24.970Z,3.80
2022-11-28T12:29:09.380Z,3.33
2022-11-28T12:30:43.455Z,4.00
2022-11-28T12:32:36.764Z,3.25
2022-11-28T12:34:05.526Z,3.47
2022-11-28T12:35:43.389Z,3.20
2022-11-28T12:37:41.982Z,3.50
2022-11-28T12:39:15.318Z,4.18
2022-11-28T12:40:42.844Z,3.80
2022-11-28T12:42:12.050Z,3.05
2022-11-28T12:43:29.187Z,3.08
2022-11-28T12:45:02.919Z,3.35
2022-11-28T12:46:18.041Z,3.67
2022-11-28T12:48:10.595Z,3.35
2022-11-28T12:49:44.580Z,2.55
2022-11-28T12:51:24.275Z,3.38
2022-11-28T12:53:07.184Z,3.05
2022-11-28T12:54:49.435Z,3.20
2022-11-28T12:56:37.126Z,3.28
2022-11-28T12:58:14.626Z,2.72
2022-11-28T12:59:53.707Z,2.70
2022-11-28T13:01:32.505Z,2.97
2022-11-28T13:02:59.752Z,2.85
2022-11-28T13:04:55.910Z,4.13
2022-11-28T13:06:24.205Z,3.75
2022-11-28T13:08:08.596Z,2.75
2022-11-28T13:09:38.022Z,2.72
2022-11-28T13:11:53.583Z,2.85
2022-11-28T13:13:40.994Z,3.50
2022-11-28T13:15:06.526Z,4.32
2022-11-28T13:16:36.010Z,3.47
2022-11-28T13:18:09.230Z,3.10
2022-11-28T13:20:06.521Z,3.08
2022-11-28T13:21:44.016Z,3.92
2022-11-28T13:23:49.450Z,2.92
2022-11-28T13:25:22.934Z,3.20
2022-11-28T13:27:09.239Z,2.38
2022-11-28T13:28:54.254Z,3.72
2022-11-28T13:30:27.427Z,3.25
2022-11-28T13:32:10.310Z,2.78
2022-11-28T13:34:03.204Z,3.08
2022-11-28T13:35:23.571Z,3.03
2022-11-28T13:38:50.282Z,2.58
2022-11-28T13:40:37.035Z,3.10
2022-11-28T13:42:44.254Z,3.75
2022-11-28T13:44:20.363Z,2.78
2022-11-28T13:47:49.658Z,3.33
2022-11-28T13:49:34.007Z,2.95
2022-11-28T13:51:11.868Z,3.10
2022-11-28T13:52:25.687Z,3.70
2022-11-28T13:54:44.272Z,3.25
2022-11-28T13:56:30.660Z,2.85
2022-11-28T13:57:49.277Z,3.65
2022-11-28T13:59:02.407Z,3.20
2022-11-28T14:00:31.807Z,3.25
2022-11-28T14:02:02.996Z,3.47
2022-11-28T14:03:29.448Z,3.92
2022-11-28T14:04:48.493Z,3.88
2022-11-28T14:06:07.277Z,2.67
2022-11-28T14:07:40.753Z,2.97
2022-11-28T14:08:59.328Z,2.58
2022-11-28T14:13:23.148Z,3.13
2022-11-28T14:15:10.233Z,2.95
2022-11-28T14:17:16.887Z,3.30
2022-11-28T14:18:58.248Z,3.47
2022-11-28T14:20:41.724Z,2.88
2022-11-28T14:22:41.840Z,3.70
2022-11-28T14:24:32.918Z,3.20
2022-11-28T14:25:55.657Z,4.32
2022-11-28T14:27:06.552Z,2.97
2022-11-28T14:28:42.781Z,2.90
2022-11-28T14:29:57.357Z,2.28
2022-11-28T14:31:55.214Z,2.20
2022-11-28T14:35:00.233Z,2.45
2022-11-28T14:36:36.787Z,2.67
2022-11-28T14:37:59.482Z,3.50
2022-11-28T14:39:34.155Z,3.42
2022-11-28T14:40:58.321Z,2.40
2022-11-28T14:42:30.544Z,3.85
2022-11-28T14:43:49.051Z,3.13
2022-11-28T14:45:51.196Z,2.95
2022-11-28T14:46:33.892Z,3.05
2022-11-28T14:47:42.861Z,4.03
2022-11-28T14:49:18.550Z,3.78
2022-11-28T14:50:22.164Z,2.75
2022-11-28T14:51:47.733Z,2.58
2022-11-28T14:53:32.350Z,3.28
2022-11-28T14:54:42.933Z,2.97
2022-11-28T14:55:46.896Z,2.78
2022-11-28T14:56:58.234Z,3.03
2022-11-28T14:58:05.385Z,3.25
2022-11-28T14:59:12.382Z,3.10
2022-11-28T15:00:31.750Z,3.45
2022-11-28T15:01:57.118Z,3.10
2022-11-28T15:03:44.543Z,3.45
2022-11-28T15:05:23.364Z,2.78
2022-11-28T15:06:39.852Z,3.28
2022-11-28T15:08:27.087Z,2.60
2022-11-28T15:10:07.455Z,3.20
2022-11-28T15:11:37.733Z,3.13
2022-11-28T15:13:21.951Z,3.05
2022-11-28T15:14:39.085Z,3.22
2022-11-28T15:15:57.059Z,3.13
2022-11-28T15:17:16.582Z,3.75
2022-11-28T15:18:31.130Z,2.78
2022-11-28T15:20:20.361Z,3.33
2022-11-28T15:21:27.138Z,2.80
2022-11-28T15:22:44.506Z,3.40
2022-11-28T15:23:57.574Z,3.05
2022-11-28T15:25:38.009Z,3.13
2022-11-28T15:26:42.203Z,3.42
2022-11-28T15:27:46.637Z,3.20
2022-11-28T15:29:29.425Z,2.90
2022-11-28T15:30:37.604Z,3.13
2022-11-28T15:31:52.040Z,2.78
2022-11-28T15:33:13.375Z,3.63
2022-11-28T15:34:45.734Z,2.88
2022-11-28T15:36:16.974Z,2.60
2022-11-28T15:37:38.450Z,2.80
2022-11-28T15:38:49.671Z,2.95
2022-11-28T15:40:08.453Z,3.20
2022-11-28T15:41:13.056Z,3.67
2022-11-28T15:43:12.947Z,3.33
2022-11-28T15:44:19.443Z,2.50
2022-11-28T15:45:43.321Z,3.08
2022-11-28T15:46:51.188Z,3.40
2022-11-28T15:47:58.693Z,2.45
2022-11-28T15:49:24.022Z,3.50
2022-11-28T15:51:04.421Z,4.82
2022-11-28T15:52:25.960Z,4.28
2022-11-28T15:53:32.222Z,2.83
2022-11-28T15:54:46.819Z,3.10
2022-11-28T15:56:16.441Z,3.30
2022-11-28T15:57:29.358Z,3.10
2022-11-28T15:58:45.774Z,3.80
2022-11-28T15:59:50.907Z,2.63
2022-11-28T16:01:21.253Z,3.75
2022-11-28T16:02:36.577Z,3.03
2022-11-28T16:04:13.574Z,4.18
2022-11-28T16:05:23.310Z,3.53
2022-11-28T16:06:38.588Z,2.78
2022-11-28T16:07:44.456Z,3.47
2022-11-28T16:08:55.696Z,4.38
2022-11-28T16:10:05.636Z,3.42
2022-11-28T16:11:11.307Z,3.70
2022-11-28T16:12:16.160Z,3.90
2022-11-28T16:13:30.722Z,3.30
2022-11-28T16:14:45.670Z,2.25
2022-11-28T16:15:56.188Z,3.80
2022-11-28T16:17:23.616Z,3.83
2022-11-28T16:18:31.626Z,3.40
2022-11-28T16:19:41.111Z,3.50
2022-11-28T16:20:53.942Z,2.90
2022-11-28T16:22:25.254Z,3.75
2022-11-28T16:23:39.723Z,3.78
2022-11-28T16:25:26.493Z,3.60
2022-11-28T16:26:33.829Z,3.35
2022-11-28T16:27:46.264Z,2.97
2022-11-28T16:29:10.026Z,4.22
2022-11-28T16:30:52.047Z,3.80
2022-11-28T16:32:28.113Z,3.28
2022-11-28T16:33:50.225Z,2.80
2022-11-28T16:35:05.359Z,4.53
2022-11-28T16:36:37.214Z,3.63
2022-11-28T16:37:45.232Z,3.60
2022-11-28T16:39:10.159Z,3.30
2022-11-28T16:40:28.062Z,3.08
2022-11-28T16:41:32.366Z,3.30
2022-11-28T16:42:39.667Z,3.72
2022-11-28T16:43:59.167Z,2.90
2022-11-28T16:45:26.720Z,3.65
2022-11-28T16:46:40.279Z,3.00
2022-11-28T16:47:52.810Z,3.33
2022-11-28T16:49:00.920Z,3.33
2022-11-28T16:50:18.406Z,3.80
2022-11-28T16:51:23.769Z,3.85
2022-11-28T16:52:46.514Z,4.10
2022-11-28T16:54:02.672Z,3.63
2022-11-28T16:55:41.685Z,3.83
2022-11-28T16:57:12.291Z,4.45
2022-11-28T16:58:27.054Z,2.90
2022-11-28T16:59:31.873Z,4.40
2022-11-28T17:00:44.962Z,3.20
2022-11-28T17:01:54.842Z,3.13
2022-11-28T17:03:04.396Z,3.45
2022-11-28T17:04:29.943Z,4.38
2022-11-28T17:05:37.458Z,5.18
2022-11-28T17:07:05.753Z,3.35
2022-11-28T17:08:12.882Z,3.63
2022-11-28T17:09:21.994Z,4.00
2022-11-28T17:10:34.795Z,4.07
2022-11-28T17:11:58.392Z,3.95
2022-11-28T17:13:05.377Z,4.40
2022-11-28T17:14:26.650Z,3.78
2022-11-28T17:15:36.416Z,3.83
2022-11-28T17:16:44.197Z,4.72
2022-11-28T17:17:55.829Z,4.30
2022-11-28T17:19:05.825Z,3.88
2022-11-28T17:20:15.305Z,4.40
2022-11-28T17:21:35.695Z,3.88
2022-11-28T17:22:51.376Z,5.13
2022-11-28T17:24:06.033Z,3.78
2022-11-28T17:25:30.407Z,4.25
2022-11-28T17:26:35.654Z,4.80
2022-11-28T17:27:40.293Z,3.92
2022-11-28T17:28:47.978Z,4.55
2022-11-28T17:30:24.568Z,3.88
2022-11-28T17:31:29.935Z,4.40
2022-11-28T17:32:43.959Z,3.55
2022-11-28T17:33:48.108Z,3.92
2022-11-28T17:36:28.531Z,3.90
2022-11-28T17:37:38.848Z,4.60
2022-11-28T17:38:49.046Z,4.45
2022-11-28T17:40:14.272Z,4.35
2022-11-28T17:41:24.465Z,5.53
2022-11-28T17:42:35.546Z,3.80
2022-11-28T17:43:42.349Z,4.63
2022-11-28T17:45:12.559Z,3.72
2022-11-28T17:46:21.563Z,4.88
2022-11-28T17:47:30.668Z,4.07
2022-11-28T17:48:42.424Z,4.75
2022-11-28T17:49:56.222Z,5.20
2022-11-28T17:51:11.078Z,3.47